Time;durP1;ratioP1;P1;durP2;ratioP2;P2;SDS_P1;SDS_P2;PMS_P1;PMS_P2;Temp;Humidity;BMP_temperature;BMP_pressure;BME280_temperature;BME280_humidity;BME280_pressure;Samples;Min_cycle;Max_cycle;Signal;HPM_P1;HPM_P2
2023/10/03 00:00:32;;;;;;;38.87;23.57;;;;;;;17.44;100.00;98228.38;5116107;28;20238;-72
2023/10/03 00:03:04;;;;;;;41.70;23.33;;;;;;;17.35;100.00;98229.88;5116606;28;20234;-72
2023/10/03 00:05:31;;;;;;;41.57;23.83;;;;;;;17.35;100.00;98219.94;5116302;28;20211;-72
2023/10/03 00:08:00;;;;;;;41.57;23.90;;;;;;;17.41;100.00;98216.25;5116234;28;20235;-72
2023/10/03 00:10:28;;;;;;;39.97;22.27;;;;;;;17.30;100.00;98222.59;5116373;28;20594;-72
2023/10/03 00:12:57;;;;;;;43.30;23.03;;;;;;;17.29;100.00;98220.97;5116575;27;20650;-72
2023/10/03 00:15:27;;;;;;;37.30;22.17;;;;;;;17.23;100.00;98213.94;5115813;28;20207;-72
2023/10/03 00:17:56;;;;;;;41.40;24.33;;;;;;;17.10;100.00;98216.25;5115982;28;20772;-72
2023/10/03 00:20:24;;;;;;;38.47;22.63;;;;;;;17.05;100.00;98216.22;5115761;28;20620;-72
2023/10/03 00:22:53;;;;;;;36.73;22.30;;;;;;;17.01;100.00;98217.81;5115842;28;20242;-72
2023/10/03 00:25:23;;;;;;;40.33;23.13;;;;;;;17.02;100.00;98204.13;5115852;28;20207;-72
2023/10/03 00:27:54;;;;;;;40.97;23.30;;;;;;;17.00;100.00;98205.41;5115822;28;20702;-72
2023/10/03 00:30:25;;;;;;;39.43;21.90;;;;;;;17.02;100.00;98209.50;5115848;28;20550;-72
2023/10/03 00:32:53;;;;;;;41.27;22.10;;;;;;;17.07;100.00;98209.53;5115771;28;20190;-72
2023/10/03 00:35:26;;;;;;;36.97;21.83;;;;;;;16.98;100.00;98205.69;5116112;28;20566;-72
2023/10/03 00:37:55;;;;;;;38.60;22.70;;;;;;;16.98;100.00;98200.31;5115779;28;20226;-72
2023/10/03 00:40:28;;;;;;;38.40;22.67;;;;;;;16.95;100.00;98200.00;5115524;28;20207;-72
2023/10/03 00:43:01;;;;;;;37.20;21.17;;;;;;;17.04;100.00;98199.28;5115869;28;20198;-72
2023/10/03 00:45:36;;;;;;;35.73;21.37;;;;;;;17.01;100.00;98191.72;5115472;28;20207;-72
2023/10/03 00:48:06;;;;;;;36.67;21.07;;;;;;;17.07;100.00;98192.59;5115430;28;20234;-72
2023/10/03 00:50:35;;;;;;;36.67;21.13;;;;;;;16.85;100.00;98190.00;5115562;27;20631;-72
2023/10/03 00:53:10;;;;;;;37.53;21.13;;;;;;;16.86;100.00;98194.28;5115400;28;20294;-72
2023/10/03 00:55:39;;;;;;;36.43;20.43;;;;;;;16.75;100.00;98186.41;5115452;28;20621;-72
2023/10/03 00:58:17;;;;;;;39.03;21.33;;;;;;;16.75;100.00;98176.50;5115587;28;20314;-72
2023/10/03 01:00:49;;;;;;;36.23;20.20;;;;;;;16.80;100.00;98179.22;5115631;28;20188;-72
2023/10/03 01:03:27;;;;;;;34.60;21.10;;;;;;;16.76;100.00;98183.47;5115623;28;20620;-72
2023/10/03 01:05:59;;;;;;;39.27;22.10;;;;;;;16.74;100.00;98177.53;5115373;28;20258;-72
2023/10/03 01:08:27;;;;;;;35.67;20.80;;;;;;;16.77;100.00;98176.22;5114953;28;20227;-72
2023/10/03 01:10:54;;;;;;;37.77;21.37;;;;;;;16.70;100.00;98178.31;5115363;28;20245;-72
2023/10/03 01:13:23;;;;;;;37.50;21.07;;;;;;;16.69;100.00;98168.66;5115271;28;20210;-72
2023/10/03 01:15:52;;;;;;;31.03;19.37;;;;;;;16.65;100.00;98167.53;5114819;28;20211;-72
2023/10/03 01:18:21;;;;;;;30.07;18.30;;;;;;;16.71;100.00;98163.81;5115090;28;20245;-72
2023/10/03 01:20:55;;;;;;;32.37;18.13;;;;;;;16.85;100.00;98165.00;5115072;28;20203;-72
2023/10/03 01:23:22;;;;;;;30.33;18.43;;;;;;;16.81;100.00;98153.97;5115177;28;20187;-72
2023/10/03 01:25:49;;;;;;;32.80;18.43;;;;;;;16.95;100.00;98167.78;5114649;28;20369;-72
2023/10/03 01:28:15;;;;;;;31.03;18.27;;;;;;;16.95;100.00;98159.72;5114975;28;20233;-72
2023/10/03 01:30:42;;;;;;;32.93;18.80;;;;;;;16.94;100.00;98158.09;5114962;28;20248;-72
2023/10/03 01:33:10;;;;;;;33.00;18.60;;;;;;;17.10;100.00;98168.69;5114813;28;20601;-72
2023/10/03 01:35:36;;;;;;;37.37;21.57;;;;;;;17.12;100.00;98163.91;5114602;28;20211;-72
2023/10/03 01:38:04;;;;;;;32.83;20.33;;;;;;;17.05;100.00;98165.97;5114775;28;20223;-72
2023/10/03 01:40:31;;;;;;;37.83;21.90;;;;;;;17.02;100.00;98163.00;5114866;28;20209;-72
2023/10/03 01:42:57;;;;;;;37.53;21.00;;;;;;;16.91;100.00;98158.59;5114854;28;20573;-72
2023/10/03 01:45:33;;;;;;;42.03;20.60;;;;;;;16.77;100.00;98158.22;5114305;28;20218;-72
2023/10/03 01:47:59;;;;;;;37.93;21.60;;;;;;;16.72;100.00;98150.13;5114625;28;20222;-72
2023/10/03 01:50:28;;;;;;;37.00;21.33;;;;;;;16.71;100.00;98136.97;5114626;28;20210;-72
2023/10/03 01:52:55;;;;;;;36.33;21.43;;;;;;;16.58;100.00;98138.22;5114301;28;20210;-72
2023/10/03 01:55:21;;;;;;;35.60;20.63;;;;;;;16.50;100.00;98135.97;5114572;28;20210;-72
2023/10/03 01:57:49;;;;;;;34.30;20.73;;;;;;;16.48;100.00;98129.25;5114306;28;20242;-72
2023/10/03 02:00:24;;;;;;;35.80;21.10;;;;;;;16.47;100.00;98128.44;5114207;28;20306;-72
2023/10/03 02:02:51;;;;;;;35.57;21.13;;;;;;;16.38;100.00;98121.88;5114089;28;20602;-71
2023/10/03 02:05:23;;;;;;;37.50;20.93;;;;;;;16.42;100.00;98131.06;5114144;28;20205;-72
2023/10/03 02:07:51;;;;;;;36.23;21.03;;;;;;;16.36;100.00;98124.00;5114071;28;20227;-72
2023/10/03 02:10:18;;;;;;;37.10;21.23;;;;;;;16.35;100.00;98116.22;5114282;28;20199;-72
2023/10/03 02:12:48;;;;;;;34.13;20.33;;;;;;;16.35;100.00;98126.94;5114272;28;20209;-72
2023/10/03 02:15:20;;;;;;;34.53;20.53;;;;;;;16.34;100.00;98115.41;5113732;28;20249;-71
2023/10/03 02:17:49;;;;;;;35.87;20.40;;;;;;;16.28;100.00;98120.97;5113811;28;20314;-71
2023/10/03 02:20:20;;;;;;;36.67;21.53;;;;;;;16.32;100.00;98111.34;5114242;28;20210;-71
2023/10/03 02:22:56;;;;;;;33.60;19.53;;;;;;;16.26;100.00;98115.88;5113925;28;20652;-71
2023/10/03 02:25:27;;;;;;;40.03;21.70;;;;;;;16.15;100.00;98116.03;5113687;28;20421;-72
2023/10/03 02:27:55;;;;;;;36.60;21.20;;;;;;;16.14;100.00;98117.88;5114054;28;20235;-72
2023/10/03 02:30:25;;;;;;;37.63;21.67;;;;;;;16.28;100.00;98118.31;5113777;28;20203;-72
2023/10/03 02:32:57;;;;;;;37.83;21.60;;;;;;;16.28;100.00;98111.03;5114102;28;20195;-72
2023/10/03 02:35:25;;;;;;;36.30;21.77;;;;;;;16.37;100.00;98106.84;5114068;28;20213;-72
2023/10/03 02:37:56;;;;;;;40.93;22.37;;;;;;;16.37;100.00;98098.78;5113944;28;20219;-72
2023/10/03 02:40:28;;;;;;;36.13;20.43;;;;;;;16.34;100.00;98093.94;5113673;28;20203;-72
2023/10/03 02:42:55;;;;;;;37.47;20.93;;;;;;;16.26;100.00;98088.22;5113961;28;20183;-72
2023/10/03 02:45:23;;;;;;;35.23;21.20;;;;;;;16.39;100.00;98085.13;5113893;28;20203;-71
2023/10/03 02:47:53;;;;;;;37.57;21.20;;;;;;;16.27;100.00;98084.47;5113589;28;20262;-71
2023/10/03 02:50:20;;;;;;;36.90;21.00;;;;;;;16.13;100.00;98080.56;5113617;28;20195;-71
2023/10/03 02:52:47;;;;;;;37.10;21.23;;;;;;;15.95;100.00;98089.78;5113532;28;20207;-72
2023/10/03 02:55:16;;;;;;;34.30;21.07;;;;;;;15.99;100.00;98077.50;5113649;28;20207;-72
2023/10/03 02:57:43;;;;;;;37.03;21.07;;;;;;;16.01;100.00;98080.72;5113650;28;20215;-72
2023/10/03 03:00:12;;;;;;;35.03;20.20;;;;;;;15.98;100.00;98083.13;5113368;28;20674;-72
2023/10/03 03:02:56;;;;;;;35.13;20.13;;;;;;;15.94;100.00;98082.81;5113707;28;20238;-72
2023/10/03 03:05:23;;;;;;;34.27;20.33;;;;;;;15.99;100.00;98068.63;5113725;28;20197;-73
2023/10/03 03:07:58;;;;;;;35.70;20.53;;;;;;;15.98;100.00;98073.22;5113439;28;20231;-72
2023/10/03 03:10:24;;;;;;;35.37;21.03;;;;;;;15.94;100.00;98063.22;5113291;28;20187;-72
2023/10/03 03:12:51;;;;;;;34.27;20.60;;;;;;;16.02;100.00;98074.28;5114277;28;20206;-72
2023/10/03 03:15:22;;;;;;;38.13;20.93;;;;;;;15.84;100.00;98081.88;5112941;28;20556;-72
2023/10/03 03:17:53;;;;;;;33.23;19.97;;;;;;;15.86;100.00;98075.22;5113064;28;20597;-72
2023/10/03 03:20:25;;;;;;;35.30;20.80;;;;;;;15.77;100.00;98076.72;5113228;28;20184;-72
2023/10/03 03:22:52;;;;;;;31.93;19.30;;;;;;;15.80;100.00;98078.09;5113293;28;20703;-72
2023/10/03 03:25:24;;;;;;;37.97;20.37;;;;;;;15.83;100.00;98075.69;5113592;28;20204;-72
2023/10/03 03:27:54;;;;;;;32.73;20.37;;;;;;;15.81;100.00;98074.34;5113336;28;20231;-72
2023/10/03 03:30:34;;;;;;;31.67;19.87;;;;;;;15.79;100.00;98079.16;5113273;28;20202;-72
2023/10/03 03:33:03;;;;;;;35.57;20.73;;;;;;;15.79;100.00;98085.31;5113441;28;20188;-72
2023/10/03 03:35:37;;;;;;;32.17;20.30;;;;;;;15.90;100.00;98088.91;5113376;28;20537;-72
2023/10/03 03:38:05;;;;;;;33.03;19.77;;;;;;;15.92;100.00;98084.13;5116933;28;20597;-72
2023/10/03 03:40:34;;;;;;;33.20;19.13;;;;;;;15.88;100.00;98072.28;5117020;28;20208;-72
2023/10/03 03:43:03;;;;;;;36.30;20.47;;;;;;;15.77;100.00;98075.91;5116609;28;20223;-72
2023/10/03 03:45:30;;;;;;;34.70;19.93;;;;;;;15.78;100.00;98086.38;5116958;28;20218;-72
2023/10/03 03:47:57;;;;;;;37.83;20.33;;;;;;;15.73;100.00;98086.31;5116418;27;20227;-72
2023/10/03 03:50:24;;;;;;;33.27;20.30;;;;;;;15.83;100.00;98089.09;5116754;28;20222;-72
2023/10/03 03:52:51;;;;;;;34.37;20.17;;;;;;;15.87;100.00;98084.88;5116686;28;20207;-72
2023/10/03 03:55:18;;;;;;;34.13;19.83;;;;;;;15.84;100.00;98087.25;5116383;28;20298;-72
2023/10/03 03:57:46;;;;;;;36.63;19.40;;;;;;;15.93;100.00;98083.84;5116172;28;20229;-72
2023/10/03 04:00:22;;;;;;;32.00;19.73;;;;;;;15.92;100.00;98086.81;5116518;28;20203;-72
2023/10/03 04:02:49;;;;;;;33.80;19.13;;;;;;;15.90;100.00;98087.06;5116232;28;20265;-72
2023/10/03 04:05:20;;;;;;;32.67;20.17;;;;;;;16.00;100.00;98086.34;5116238;27;20210;-72
2023/10/03 04:07:47;;;;;;;33.20;18.53;;;;;;;16.05;100.00;98071.13;5116382;28;20227;-71
2023/10/03 04:10:13;;;;;;;33.30;19.77;;;;;;;15.90;100.00;98068.28;5116371;28;20214;-71
2023/10/03 04:12:41;;;;;;;33.57;19.57;;;;;;;15.89;100.00;98069.34;5116323;28;20203;-71
2023/10/03 04:15:18;;;;;;;30.73;19.00;;;;;;;15.86;100.00;98067.16;5116232;28;20219;-71
2023/10/03 04:17:46;;;;;;;30.07;18.40;;;;;;;15.89;100.00;98066.69;5117129;28;20222;-71
2023/10/03 04:20:19;;;;;;;32.87;19.47;;;;;;;15.84;100.00;98057.75;5116276;28;20203;-71
2023/10/03 04:22:47;;;;;;;34.53;19.77;;;;;;;15.83;100.00;98067.66;5115934;28;20187;-71
2023/10/03 04:25:15;;;;;;;30.90;18.17;;;;;;;15.96;100.00;98056.53;5115697;28;20612;-71
2023/10/03 04:27:42;;;;;;;34.17;18.60;;;;;;;15.89;100.00;98055.94;5116086;28;20231;-71
2023/10/03 04:30:13;;;;;;;33.37;18.93;;;;;;;15.88;100.00;98057.00;5116150;28;20205;-71
2023/10/03 04:32:41;;;;;;;31.90;18.10;;;;;;;15.83;100.00;98058.84;5116184;28;20244;-71
2023/10/03 04:35:13;;;;;;;31.33;18.13;;;;;;;15.90;100.00;98054.06;5116083;28;20207;-71
2023/10/03 04:37:42;;;;;;;29.27;16.87;;;;;;;16.17;100.00;98066.41;5115415;28;20223;-71
2023/10/03 04:40:15;;;;;;;28.87;17.73;;;;;;;16.06;100.00;98058.53;5115870;28;20207;-71
2023/10/03 04:42:43;;;;;;;29.57;17.80;;;;;;;15.93;100.00;98059.72;5115744;28;20214;-71
2023/10/03 04:45:13;;;;;;;31.43;18.20;;;;;;;15.97;100.00;98060.84;5115574;28;20203;-71
2023/10/03 04:47:45;;;;;;;31.27;17.53;;;;;;;15.86;100.00;98063.66;5114563;28;20547;-71
2023/10/03 04:50:16;;;;;;;28.50;16.57;;;;;;;15.94;100.00;98061.38;5115653;28;20191;-71
2023/10/03 04:52:43;;;;;;;29.70;17.83;;;;;;;15.95;100.00;98060.28;5115599;28;20192;-73
2023/10/03 04:55:09;;;;;;;27.30;16.50;;;;;;;15.92;100.00;98055.44;5115289;28;20249;-72
2023/10/03 04:57:41;;;;;;;27.10;15.73;;;;;;;15.98;100.00;98058.97;5115560;28;20230;-72
2023/10/03 05:00:09;;;;;;;23.67;15.47;;;;;;;16.06;100.00;98056.63;5115541;28;20196;-72
2023/10/03 05:02:35;;;;;;;28.17;15.50;;;;;;;16.13;100.00;98051.91;5115271;28;20207;-72
2023/10/03 05:05:02;;;;;;;24.00;14.90;;;;;;;16.18;100.00;98062.66;5115151;28;20211;-72
2023/10/03 05:07:28;;;;;;;25.97;15.27;;;;;;;16.22;100.00;98066.47;5115277;28;20234;-72
2023/10/03 05:09:55;;;;;;;23.50;14.93;;;;;;;16.19;100.00;98056.22;5115841;28;20203;-72
2023/10/03 05:12:24;;;;;;;25.20;14.60;;;;;;;16.11;100.00;98050.53;5114985;28;20727;-75
2023/10/03 05:14:51;;;;;;;21.73;14.13;;;;;;;16.18;100.00;98049.25;5115140;28;20244;-73
2023/10/03 05:17:18;;;;;;;23.67;13.87;;;;;;;16.41;100.00;98057.00;5115909;28;20184;-73
2023/10/03 05:19:44;;;;;;;23.80;14.50;;;;;;;16.52;100.00;98055.22;5115111;28;20207;-73
2023/10/03 05:22:10;;;;;;;24.40;14.60;;;;;;;16.41;100.00;98059.69;5115084;28;20203;-73
2023/10/03 05:24:37;;;;;;;23.43;15.57;;;;;;;16.30;100.00;98062.50;5115074;28;20199;-73
2023/10/03 05:27:06;;;;;;;23.13;14.63;;;;;;;16.31;100.00;98056.06;5115327;28;20269;-73
2023/10/03 05:29:33;;;;;;;26.03;15.33;;;;;;;16.36;100.00;98072.22;5114851;28;20203;-73
2023/10/03 05:32:00;;;;;;;25.97;15.17;;;;;;;16.33;100.00;98057.44;5115053;28;20207;-73
2023/10/03 05:34:27;;;;;;;23.03;14.60;;;;;;;16.30;100.00;98060.63;5114672;28;20669;-73
2023/10/03 05:36:53;;;;;;;23.70;15.50;;;;;;;16.26;100.00;98062.22;5114505;28;20665;-72
2023/10/03 05:39:20;;;;;;;23.13;14.57;;;;;;;16.29;100.00;98064.38;5114637;28;20272;-72
2023/10/03 05:41:46;;;;;;;25.07;13.87;;;;;;;16.41;100.00;98065.06;5114224;28;20302;-72
2023/10/03 05:44:13;;;;;;;21.70;14.40;;;;;;;16.50;100.00;98063.50;5114292;28;20688;-72
2023/10/03 05:46:41;;;;;;;23.43;14.03;;;;;;;16.44;100.00;98063.72;5114522;28;20227;-72
2023/10/03 05:49:08;;;;;;;20.67;12.97;;;;;;;16.52;100.00;98071.31;5114217;28;20233;-71
2023/10/03 05:51:34;;;;;;;20.93;13.67;;;;;;;16.51;100.00;98073.19;5115237;27;20231;-71
2023/10/03 05:54:02;;;;;;;19.53;12.67;;;;;;;16.65;100.00;98073.56;5114567;28;20210;-73
2023/10/03 05:56:29;;;;;;;20.93;12.97;;;;;;;16.70;100.00;98073.59;5114578;28;20285;-72
2023/10/03 05:58:55;;;;;;;18.23;12.13;;;;;;;16.70;100.00;98082.44;5113265;28;20219;-72
2023/10/03 06:01:21;;;;;;;17.10;11.57;;;;;;;16.86;100.00;98081.50;5114091;28;20658;-72
2023/10/03 06:03:48;;;;;;;21.20;12.80;;;;;;;16.89;100.00;98083.69;5114455;28;20225;-72
2023/10/03 06:06:15;;;;;;;17.70;11.57;;;;;;;16.89;100.00;98082.88;5114304;28;20203;-72
2023/10/03 06:08:41;;;;;;;19.37;12.50;;;;;;;16.95;100.00;98096.06;5113648;28;20223;-72
2023/10/03 06:11:08;;;;;;;18.53;11.77;;;;;;;16.94;100.00;98096.31;5114107;28;20231;-72
2023/10/03 06:13:34;;;;;;;22.63;12.60;;;;;;;17.06;100.00;98094.28;5113659;28;20681;-71
2023/10/03 06:16:00;;;;;;;21.77;13.23;;;;;;;16.98;100.00;98100.94;5113724;28;20222;-71
2023/10/03 06:18:28;;;;;;;19.57;12.43;;;;;;;17.10;100.00;98101.53;5114085;28;20215;-71
2023/10/03 06:20:57;;;;;;;19.03;12.17;;;;;;;17.08;100.00;98095.63;5114131;28;20235;-71
2023/10/03 06:23:24;;;;;;;22.77;13.20;;;;;;;17.07;100.00;98093.19;5114093;28;20254;-72
2023/10/03 06:25:51;;;;;;;19.83;12.20;;;;;;;17.17;100.00;98095.94;5114135;28;20203;-72
2023/10/03 06:28:17;;;;;;;21.20;13.20;;;;;;;17.32;100.00;98104.91;5113610;28;20227;-72
2023/10/03 06:30:43;;;;;;;20.50;12.87;;;;;;;17.51;100.00;98111.47;5113766;28;20203;-72
2023/10/03 06:33:10;;;;;;;18.90;12.30;;;;;;;17.40;100.00;98104.44;5114059;28;20207;-72
2023/10/03 06:35:36;;;;;;;19.20;12.53;;;;;;;17.69;100.00;98107.56;5113713;28;20681;-72
2023/10/03 06:38:04;;;;;;;19.67;12.10;;;;;;;17.68;100.00;98112.09;5113533;28;20710;-72
2023/10/03 06:40:30;;;;;;;20.47;12.87;;;;;;;17.79;100.00;98104.88;5113962;28;20242;-72
2023/10/03 06:42:57;;;;;;;21.17;13.67;;;;;;;17.85;100.00;98111.91;5113754;28;20203;-72
2023/10/03 06:45:23;;;;;;;22.83;13.57;;;;;;;17.86;100.00;98111.63;5113844;28;20210;-72
2023/10/03 06:47:49;;;;;;;20.07;13.13;;;;;;;17.87;100.00;98115.16;5113618;28;20227;-72
2023/10/03 06:50:17;;;;;;;21.07;12.60;;;;;;;17.99;100.00;98103.06;5113736;28;20210;-72
2023/10/03 06:52:43;;;;;;;20.77;13.27;;;;;;;17.95;100.00;98103.84;5113676;28;20199;-72
2023/10/03 06:55:15;;;;;;;21.23;13.07;;;;;;;18.15;100.00;98102.03;5113732;28;20209;-72
2023/10/03 06:57:41;;;;;;;20.60;13.53;;;;;;;18.19;100.00;98108.50;5113624;28;20234;-72
2023/10/03 07:00:13;;;;;;;19.73;12.77;;;;;;;18.36;100.00;98101.03;5113419;28;20596;-72
2023/10/03 07:02:40;;;;;;;20.03;12.67;;;;;;;18.42;100.00;98118.78;5113442;28;20553;-72
2023/10/03 07:05:08;;;;;;;18.07;11.03;;;;;;;18.80;100.00;98117.47;5113364;28;20221;-72
2023/10/03 07:07:35;;;;;;;16.77;11.07;;;;;;;18.93;100.00;98115.06;5113496;28;20231;-72
2023/10/03 07:10:01;;;;;;;17.43;10.77;;;;;;;19.09;100.00;98113.16;5114351;28;20203;-72
2023/10/03 07:12:29;;;;;;;16.57;11.00;;;;;;;19.48;100.00;98117.69;5117607;28;20295;-72
2023/10/03 07:14:55;;;;;;;16.97;10.40;;;;;;;19.57;100.00;98114.44;5117357;28;20204;-72
2023/10/03 07:17:23;;;;;;;19.33;12.73;;;;;;;19.62;100.00;98126.00;5117399;28;20272;-72
2023/10/03 07:19:50;;;;;;;19.20;12.40;;;;;;;19.72;100.00;98119.78;5117524;28;20203;-73
2023/10/03 07:22:18;;;;;;;19.53;12.27;;;;;;;19.72;100.00;98117.91;5117482;28;20207;-73
2023/10/03 07:24:44;;;;;;;20.40;12.30;;;;;;;19.78;100.00;98122.19;5117394;28;20258;-73
2023/10/03 07:27:13;;;;;;;18.73;12.10;;;;;;;20.04;100.00;98117.47;5116910;28;20213;-73
2023/10/03 07:29:42;;;;;;;18.07;11.73;;;;;;;19.95;100.00;98116.44;5117281;28;20203;-73
2023/10/03 07:32:12;;;;;;;20.17;10.80;;;;;;;20.23;100.00;98122.00;5117174;28;20199;-73
2023/10/03 07:34:42;;;;;;;18.87;10.63;;;;;;;20.31;100.00;98128.69;5116973;28;20558;-73
2023/10/03 07:37:09;;;;;;;14.20;9.70;;;;;;;20.24;100.00;98118.19;5116993;28;20192;-72
2023/10/03 07:39:38;;;;;;;15.97;10.13;;;;;;;20.58;99.79;98115.56;5116635;28;20619;-72
2023/10/03 07:42:04;;;;;;;14.27;10.03;;;;;;;20.78;97.08;98116.19;5117093;28;20206;-72
2023/10/03 07:44:31;;;;;;;17.07;10.23;;;;;;;20.67;98.07;98119.28;5116799;28;20211;-72
2023/10/03 07:46:57;;;;;;;13.73;9.90;;;;;;;20.85;97.33;98121.28;5116930;27;20214;-72
2023/10/03 07:49:24;;;;;;;14.77;9.70;;;;;;;21.11;93.57;98126.22;5116397;28;20237;-72
2023/10/03 07:51:53;;;;;;;12.87;8.70;;;;;;;21.21;93.18;98128.81;5116753;28;20199;-72
2023/10/03 07:54:20;;;;;;;12.90;9.33;;;;;;;21.31;91.87;98130.63;5116521;28;20670;-72
2023/10/03 07:56:48;;;;;;;14.57;9.80;;;;;;;21.46;91.49;98122.34;5116799;28;20229;-72
2023/10/03 07:59:14;;;;;;;15.20;9.47;;;;;;;21.56;90.28;98128.47;5116558;28;20755;-72
2023/10/03 08:01:42;;;;;;;14.00;9.27;;;;;;;21.65;90.60;98121.31;5116641;28;20199;-72
2023/10/03 08:04:12;;;;;;;17.23;11.40;;;;;;;21.76;88.67;98122.88;5116173;28;20658;-72
2023/10/03 08:06:40;;;;;;;15.57;8.67;;;;;;;21.82;89.66;98127.13;5116630;28;20191;-72
2023/10/03 08:09:08;;;;;;;14.65;9.02;;;;;;;21.77;89.65;98124.47;5116330;28;20235;-72
2023/10/03 08:11:36;;;;;;;14.53;9.20;;;;;;;22.07;89.37;98131.41;5116288;28;20203;-72
2023/10/03 08:14:11;;;;;;;12.82;8.75;;;;;;;22.26;88.78;98130.34;5116024;28;20205;-72
2023/10/03 08:16:40;;;;;;;11.80;8.40;;;;;;;22.20;88.69;98131.50;5116084;28;20218;-72
2023/10/03 08:19:08;;;;;;;11.38;8.65;;;;;;;22.48;86.94;98124.38;5116275;27;20230;-72
2023/10/03 08:21:43;;;;;;;11.88;8.48;;;;;;;22.82;85.75;98120.31;5115663;28;20207;-72
2023/10/03 08:24:14;;;;;;;8.88;6.22;;;;;;;23.30;80.25;98113.56;5115534;28;20634;-72
2023/10/03 08:26:46;;;;;;;10.57;7.50;;;;;;;23.31;75.51;98109.72;5115719;27;20191;-72
2023/10/03 08:29:21;;;;;;;8.20;5.22;;;;;;;23.58;69.19;98117.09;5115661;27;20231;-72
2023/10/03 08:31:56;;;;;;;6.25;5.63;;;;;;;23.79;65.62;98113.66;5115871;27;20270;-72
2023/10/03 08:34:23;;;;;;;5.13;4.63;;;;;;;23.72;65.25;98110.56;5115872;28;20183;-72
2023/10/03 08:36:53;;;;;;;7.38;5.00;;;;;;;23.67;65.05;98107.13;5115818;28;20245;-72
2023/10/03 08:39:23;;;;;;;6.97;5.30;;;;;;;23.73;64.29;98109.47;5115564;28;20221;-72
2023/10/03 08:42:17;;;;;;;6.65;5.15;;;;;;;23.75;68.13;98106.44;5116303;27;20214;-72
2023/10/03 08:44:51;;;;;;;8.30;5.82;;;;;;;23.78;65.17;98112.06;5107455;28;20299;-72
2023/10/03 08:47:28;;;;;;;6.63;5.00;;;;;;;24.16;64.05;98101.81;5115182;28;20213;-72
2023/10/03 08:50:29;;;;;;;5.88;4.75;;;;;;;24.37;62.98;98108.41;5115249;27;20696;-72
2023/10/03 08:52:56;;;;;;;6.75;5.20;;;;;;;24.52;61.84;98097.97;5109637;28;20207;-72
2023/10/03 08:55:26;;;;;;;6.22;4.50;;;;;;;24.69;62.06;98094.63;5114960;28;20670;-72
2023/10/03 08:57:53;;;;;;;9.00;4.93;;;;;;;24.79;63.10;98092.44;5115162;28;20555;-72
2023/10/03 09:00:25;;;;;;;10.02;5.13;;;;;;;24.88;61.48;98100.69;5115188;28;20348;-72
2023/10/03 09:02:59;;;;;;;7.13;5.03;;;;;;;24.86;60.74;98098.28;5115178;28;20215;-72
2023/10/03 09:05:26;;;;;;;9.80;5.10;;;;;;;24.94;59.93;98102.97;5115198;28;20195;-72
2023/10/03 09:07:55;;;;;;;5.20;4.68;;;;;;;24.91;59.97;98100.06;5115009;28;20345;-72
2023/10/03 09:10:23;;;;;;;8.65;4.95;;;;;;;24.69;61.43;98100.06;5114816;28;20209;-72
2023/10/03 09:13:03;;;;;;;6.50;4.95;;;;;;;24.84;59.70;98094.25;5115073;28;20546;-72
2023/10/03 09:15:37;;;;;;;6.88;4.70;;;;;;;24.92;61.04;98093.53;5114616;28;20211;-72
2023/10/03 09:18:09;;;;;;;8.25;4.82;;;;;;;25.02;60.21;98095.97;5115186;28;20230;-72
2023/10/03 09:20:37;;;;;;;7.65;5.13;;;;;;;24.90;60.38;98101.16;5114783;28;20207;-72
2023/10/03 09:23:06;;;;;;;5.88;4.70;;;;;;;24.88;61.56;98089.81;5115128;28;20199;-72
2023/10/03 09:25:35;;;;;;;5.55;4.60;;;;;;;24.77;60.99;98097.41;5114880;27;20283;-72
2023/10/03 09:28:09;;;;;;;6.97;5.10;;;;;;;24.80;60.24;98093.25;5114468;28;20708;-72
2023/10/03 09:30:38;;;;;;;7.10;4.50;;;;;;;24.77;59.18;98100.13;5114633;28;20635;-72
2023/10/03 09:33:09;;;;;;;7.43;4.97;;;;;;;24.82;60.20;98097.28;5114267;28;20228;-72
2023/10/03 09:35:39;;;;;;;7.13;5.25;;;;;;;25.09;58.92;98099.03;5114341;28;20206;-72
2023/10/03 09:38:08;;;;;;;7.72;4.95;;;;;;;25.13;58.32;98100.03;5114396;28;20697;-72
2023/10/03 09:41:02;;;;;;;5.78;4.85;;;;;;;25.18;58.56;98103.44;5114292;28;20256;-72
2023/10/03 09:43:28;;;;;;;5.68;5.07;;;;;;;25.20;58.54;98106.63;5111758;28;20275;-72
2023/10/03 09:45:56;;;;;;;5.78;4.85;;;;;;;25.25;58.12;98100.28;5114372;28;20215;-72
2023/10/03 09:48:25;;;;;;;6.05;4.95;;;;;;;25.40;57.97;98097.97;5114022;28;20223;-72
2023/10/03 09:51:05;;;;;;;5.95;4.82;;;;;;;25.62;57.68;98097.94;5114479;28;20203;-72
2023/10/03 09:53:33;;;;;;;5.95;4.72;;;;;;;25.72;56.77;98094.91;5114350;28;20274;-72
2023/10/03 09:56:08;;;;;;;7.82;5.25;;;;;;;25.93;56.89;98092.44;5114232;28;20214;-72
2023/10/03 09:58:35;;;;;;;8.43;4.90;;;;;;;26.40;56.54;98077.91;5114040;28;20230;-72
2023/10/03 10:01:02;;;;;;;7.35;4.97;;;;;;;26.60;55.87;98075.38;5114292;27;20206;-72
2023/10/03 10:03:37;;;;;;;5.95;4.95;;;;;;;26.64;55.59;98067.38;5113444;28;20211;-72
2023/10/03 10:06:12;;;;;;;8.45;4.68;;;;;;;26.79;55.38;98055.97;5112695;28;20278;-72
2023/10/03 10:08:48;;;;;;;5.50;4.30;;;;;;;26.73;53.42;98057.25;5114081;28;20253;-72
2023/10/03 10:11:15;;;;;;;6.50;5.00;;;;;;;26.84;54.44;98055.78;5114298;28;20209;-72
2023/10/03 10:14:08;;;;;;;5.80;4.63;;;;;;;26.94;55.23;98047.25;5113679;28;20670;-72
2023/10/03 10:16:34;;;;;;;6.18;4.55;;;;;;;26.81;53.37;98051.78;5113563;28;20678;-72
2023/10/03 10:19:03;;;;;;;6.60;4.43;;;;;;;26.82;54.03;98056.09;5113905;28;20215;-72
2023/10/03 10:21:37;;;;;;;6.57;4.95;;;;;;;26.91;53.53;98061.56;5114091;28;20599;-72
2023/10/03 10:24:15;;;;;;;5.13;4.63;;;;;;;26.77;54.68;98052.75;5113857;28;20278;-72
2023/10/03 10:26:42;;;;;;;6.50;5.30;;;;;;;26.61;54.85;98049.75;5113954;28;20611;-72
2023/10/03 10:29:14;;;;;;;5.97;4.60;;;;;;;26.57;55.04;98061.59;5113949;28;20262;-72
2023/10/03 10:31:44;;;;;;;9.52;4.95;;;;;;;26.55;53.26;98055.66;5115065;28;20598;-72
2023/10/03 10:34:19;;;;;;;5.55;4.45;;;;;;;26.56;53.94;98058.06;5113885;28;20285;-72
2023/10/03 10:37:01;;;;;;;6.85;4.55;;;;;;;26.62;53.27;98061.44;5114349;28;20234;-72
2023/10/03 10:39:56;;;;;;;6.85;5.15;;;;;;;26.40;53.75;98056.09;5113986;28;20191;-72
2023/10/03 10:42:29;;;;;;;8.15;4.75;;;;;;;26.62;52.65;98064.16;5113480;28;20419;-72
2023/10/03 10:45:04;;;;;;;5.65;4.85;;;;;;;26.48;52.32;98067.03;5114578;28;20271;-72
2023/10/03 10:47:43;;;;;;;7.10;4.70;;;;;;;26.42;52.11;98056.59;5118756;28;20226;-72
2023/10/03 10:50:09;;;;;;;6.47;4.40;;;;;;;26.63;50.86;98065.75;5117994;27;20206;-72
2023/10/03 10:52:57;;;;;;;6.95;4.68;;;;;;;26.85;51.21;98060.13;5118003;28;20234;-72
2023/10/03 10:55:25;;;;;;;7.63;4.70;;;;;;;27.08;49.70;98053.31;5117959;27;20191;-72
2023/10/03 10:58:12;;;;;;;5.18;4.40;;;;;;;27.12;49.72;98058.94;5117263;28;20227;-72
2023/10/03 11:00:40;;;;;;;6.30;4.65;;;;;;;27.34;50.51;98045.88;5117836;28;20214;-72
2023/10/03 11:03:08;;;;;;;7.40;4.50;;;;;;;27.41;49.64;98046.19;5117239;28;20685;-72
2023/10/03 11:06:01;;;;;;;6.80;5.00;;;;;;;27.53;49.96;98049.00;5117118;28;20234;-72
2023/10/03 11:08:27;;;;;;;6.55;4.32;;;;;;;27.38;50.07;98065.13;5114175;28;20238;-72
2023/10/03 11:10:56;;;;;;;6.35;4.88;;;;;;;27.05;50.80;98059.44;5117444;28;20209;-72
2023/10/03 11:13:23;;;;;;;5.82;5.28;;;;;;;26.92;51.34;98050.31;5117600;28;20206;-72
2023/10/03 11:15:54;;;;;;;8.25;5.18;;;;;;;26.78;51.39;98057.09;5117301;28;20298;-72
2023/10/03 11:18:31;;;;;;;6.15;4.95;;;;;;;26.69;52.13;98059.03;5117218;28;20220;-72
2023/10/03 11:20:59;;;;;;;7.18;5.20;;;;;;;26.77;52.90;98063.66;5117311;28;20203;-72
2023/10/03 11:23:26;;;;;;;8.20;5.53;;;;;;;26.75;52.85;98063.19;5116996;27;20242;-72
2023/10/03 11:26:01;;;;;;;6.13;5.20;;;;;;;26.51;53.00;98062.84;5116556;28;20534;-72
2023/10/03 11:28:29;;;;;;;7.70;5.22;;;;;;;26.37;52.58;98059.50;5116883;28;20222;-72